Time;durP1;ratioP1;P1;durP2;ratioP2;P2;SDS_P1;SDS_P2;PMS_P1;PMS_P2;Temp;Humidity;BMP_temperature;BMP_pressure;BME280_temperature;BME280_humidity;BME280_pressure;Samples;Min_cycle;Max_cycle;Signal;HPM_P1;HPM_P2
2022/01/28 00:04:49;;;;;;;37.63;25.85;;;;;;;2.02;91.32;99012.39;1692401;84;21051;-68
2022/01/28 00:07:16;;;;;;;29.98;20.10;;;;;;;2.03;91.43;99015.36;1692260;84;21555;-69
2022/01/28 00:09:42;;;;;;;30.57;21.77;;;;;;;2.06;91.51;99009.65;1685345;85;21059;-70
2022/01/28 00:12:10;;;;;;;30.90;20.08;;;;;;;2.06;91.49;99003.02;1711238;83;20987;-72
2022/01/28 00:14:47;;;;;;;29.40;19.65;;;;;;;2.05;91.51;98997.41;1691207;83;21521;-72
2022/01/28 00:38:44;;;;;;;34.80;20.50;;;;;;;1.99;92.02;98975.20;1693422;83;20956;-70
2022/01/28 00:41:06;;;;;;;34.60;23.18;;;;;;;1.99;91.96;98983.66;1693564;83;21080;-71
2022/01/28 00:43:35;;;;;;;33.78;21.52;;;;;;;1.99;91.99;98973.05;1713381;83;21478;-70
2022/01/28 00:46:02;;;;;;;33.50;21.35;;;;;;;2.03;92.11;98964.97;1713667;83;20985;-69
2022/01/28 00:48:29;;;;;;;27.50;19.37;;;;;;;2.05;92.05;98954.98;1686544;83;21233;-70
2022/01/28 00:50:55;;;;;;;40.10;19.70;;;;;;;2.06;92.08;98963.23;1671896;84;21010;-70
2022/01/28 00:53:21;;;;;;;35.17;21.00;;;;;;;2.04;91.97;98951.51;1717532;83;20978;-70
2022/01/28 00:55:48;;;;;;;32.03;21.40;;;;;;;2.04;91.99;98940.09;1732580;81;21002;-70
2022/01/28 00:58:14;;;;;;;35.08;22.22;;;;;;;2.07;92.11;98937.00;1713871;81;21046;-71
2022/01/28 01:00:41;;;;;;;27.50;18.73;;;;;;;2.10;92.12;98932.61;1754047;81;21193;-69
2022/01/28 01:03:08;;;;;;;29.55;19.17;;;;;;;2.10;92.11;98925.47;1729474;81;21093;-73
2022/01/28 01:05:35;;;;;;;30.60;19.75;;;;;;;2.12;92.12;98926.56;1716075;83;21555;-70
2022/01/28 01:08:01;;;;;;;25.77;18.12;;;;;;;2.10;92.04;98926.80;1694943;84;21058;-71
2022/01/28 01:10:29;;;;;;;26.45;17.45;;;;;;;2.05;92.02;98914.69;1712959;81;21528;-71
2022/01/28 01:12:56;;;;;;;31.90;20.55;;;;;;;2.03;92.04;98920.70;1730523;81;21153;-71
2022/01/28 01:15:23;;;;;;;27.82;20.50;;;;;;;2.01;92.05;98908.70;1754114;81;21058;-71
2022/01/28 01:18:16;;;;;;;24.43;19.48;;;;;;;2.01;92.11;98904.73;1700748;83;21078;-72
2022/01/28 01:20:55;;;;;;;29.30;19.30;;;;;;;2.03;92.17;98895.52;1729528;82;21015;-70
2022/01/28 01:23:08;;;;;;;23.55;16.35;;;;;;;2.07;92.11;98903.34;1709051;82;21113;-72
2022/01/28 01:25:41;;;;;;;28.65;19.05;;;;;;;2.08;91.97;98894.88;1699200;83;21884;-70
2022/01/28 01:28:00;;;;;;;26.15;18.23;;;;;;;2.10;91.81;98876.41;1675831;83;21006;-71
2022/01/28 01:30:29;;;;;;;30.35;20.20;;;;;;;2.09;91.79;98877.94;1723641;83;21559;-71
2022/01/28 01:32:55;;;;;;;26.50;19.57;;;;;;;2.07;91.67;98863.56;1723420;83;21062;-70
2022/01/28 01:35:21;;;;;;;30.17;18.35;;;;;;;2.05;91.72;98876.23;1690182;83;21754;-70
2022/01/28 01:37:48;;;;;;;25.55;16.77;;;;;;;2.06;91.75;98865.13;1722703;83;21965;-73
2022/01/28 01:40:19;;;;;;;31.85;17.98;;;;;;;2.06;91.73;98867.77;1700416;83;21559;-74
2022/01/28 01:42:54;;;;;;;27.45;18.73;;;;;;;2.07;91.79;98863.56;1699389;83;21062;-73
2022/01/28 01:53:28;;;;;;;30.48;18.92;;;;;;;1.99;91.54;98838.64;1709869;83;21589;-74
2022/01/28 01:55:55;;;;;;;27.10;19.20;;;;;;;1.97;91.71;98834.56;1729352;82;20974;-72
2022/01/28 01:58:29;;;;;;;34.03;20.80;;;;;;;1.98;91.82;98837.52;1726470;83;21046;-72
2022/01/28 02:00:51;;;;;;;30.32;19.50;;;;;;;1.99;91.93;98839.97;1724293;82;21188;-73
2022/01/28 02:03:17;;;;;;;34.25;20.32;;;;;;;2.02;91.98;98836.88;1724118;83;21098;-71
2022/01/28 02:05:44;;;;;;;34.78;19.65;;;;;;;2.00;91.89;98829.66;1728574;81;21034;-73
2022/01/28 02:08:11;;;;;;;34.45;22.93;;;;;;;1.96;91.76;98828.98;1694503;83;20939;-73
2022/01/28 02:10:37;;;;;;;27.65;17.40;;;;;;;1.95;91.86;98837.45;1704356;84;21102;-68
2022/01/28 02:13:04;;;;;;;28.47;19.95;;;;;;;1.96;91.89;98831.64;1723836;83;21090;-70
2022/01/28 02:15:30;;;;;;;26.77;18.60;;;;;;;1.95;91.97;98830.01;1725232;83;21076;-70
2022/01/28 02:17:59;;;;;;;30.17;18.95;;;;;;;1.95;92.13;98826.03;1744365;81;20984;-71
2022/01/28 02:20:34;;;;;;;25.23;17.90;;;;;;;1.96;92.23;98830.31;1727562;82;21042;-75
2022/01/28 02:22:56;;;;;;;30.08;20.20;;;;;;;1.96;92.34;98824.50;1717036;83;21587;-74
2022/01/28 02:25:25;;;;;;;36.30;21.45;;;;;;;1.93;92.25;98823.59;1707974;83;21524;-76
2022/01/28 02:27:52;;;;;;;33.30;20.57;;;;;;;1.91;92.29;98828.31;1750358;81;21146;-75
2022/01/28 02:30:18;;;;;;;28.95;17.55;;;;;;;1.92;92.51;98825.14;1753888;81;21092;-77
2022/01/28 02:32:48;;;;;;;29.72;18.98;;;;;;;1.93;92.63;98825.42;1731766;81;20999;-75
2022/01/28 02:35:13;;;;;;;32.88;20.15;;;;;;;1.90;92.58;98816.58;1724288;83;21049;-74
2022/01/28 02:37:39;;;;;;;30.82;19.80;;;;;;;1.86;92.81;98816.72;1701352;83;21023;-74
2022/01/28 02:40:07;;;;;;;31.07;18.67;;;;;;;1.81;93.17;98815.22;1724643;81;21902;-80
2022/01/28 02:42:51;;;;;;;37.93;21.87;;;;;;;1.79;93.14;98808.80;1734021;81;21101;-73
2022/01/28 02:45:02;;;;;;;32.10;19.62;;;;;;;1.77;93.21;98802.92;1748170;81;21013;-72
2022/01/28 02:47:37;;;;;;;31.45;20.97;;;;;;;1.78;93.36;98803.70;1709745;83;21082;-73
2022/01/28 02:50:03;;;;;;;28.50;19.50;;;;;;;1.77;93.49;98800.78;1724005;83;20975;-72
2022/01/28 02:52:37;;;;;;;32.93;21.25;;;;;;;1.79;93.77;98798.20;1702378;83;21054;-74
2022/01/28 02:54:59;;;;;;;25.32;17.95;;;;;;;1.77;93.77;98795.48;1727290;82;21113;-74
2022/01/28 02:57:26;;;;;;;31.75;20.92;;;;;;;1.73;93.85;98797.22;1724361;83;21090;-74
2022/01/28 02:59:53;;;;;;;26.52;19.50;;;;;;;1.72;93.94;98794.80;1715615;82;21063;-74
2022/01/28 03:02:19;;;;;;;36.68;21.30;;;;;;;1.73;94.01;98795.08;1729848;82;21067;-73
2022/01/28 03:05:30;;;;;;;26.52;18.98;;;;;;;1.74;94.07;98790.08;1720660;83;21503;-72
2022/01/28 03:07:16;;;;;;;26.85;19.32;;;;;;;1.72;94.12;98788.99;1721857;82;21485;-74
2022/01/28 03:10:01;;;;;;;31.35;19.67;;;;;;;1.71;94.11;98790.02;1724438;81;21476;-73
2022/01/28 03:12:19;;;;;;;29.67;19.75;;;;;;;1.71;94.22;98790.02;1720704;82;21051;-72
2022/01/28 03:14:54;;;;;;;25.85;19.73;;;;;;;1.73;94.24;98785.29;1712994;82;21051;-72
2022/01/28 03:17:49;;;;;;;30.95;20.02;;;;;;;1.74;94.17;98788.76;1735162;82;21151;-73
2022/01/28 03:19:51;;;;;;;33.70;20.57;;;;;;;1.72;94.15;98790.83;1723356;82;21560;-73
2022/01/28 03:24:58;;;;;;;29.13;19.10;;;;;;;1.79;94.32;98784.13;1845353;76;22635;-74
2022/01/28 03:27:49;;;;;;;29.07;19.70;;;;;;;1.75;94.29;98777.95;1787432;77;20967;-75
2022/01/28 03:29:58;;;;;;;29.82;20.12;;;;;;;1.80;94.29;98775.16;1809732;77;21066;-72
2022/01/28 03:32:24;;;;;;;23.25;17.12;;;;;;;1.82;94.28;98773.12;1784510;80;20939;-71
2022/01/28 03:34:50;;;;;;;29.92;18.75;;;;;;;1.83;94.30;98773.39;1770481;79;20972;-74
2022/01/28 03:37:19;;;;;;;25.82;18.60;;;;;;;1.80;94.16;98770.67;1814810;78;20956;-75
2022/01/28 03:39:45;;;;;;;39.75;19.48;;;;;;;1.77;94.19;98768.98;1790868;79;20987;-72
2022/01/28 03:42:11;;;;;;;27.37;17.90;;;;;;;1.79;94.34;98766.91;1794577;78;20963;-74
2022/01/28 03:44:38;;;;;;;28.75;19.25;;;;;;;1.78;94.30;98764.77;1787674;79;20958;-74
2022/01/28 03:47:04;;;;;;;27.87;18.87;;;;;;;1.82;94.33;98763.84;1788708;80;20982;-72
2022/01/28 03:49:31;;;;;;;26.52;18.45;;;;;;;1.81;94.20;98763.03;1756888;80;21017;-73
2022/01/28 03:51:57;;;;;;;31.20;19.15;;;;;;;1.75;94.03;98762.05;1783921;79;21042;-74
2022/01/28 03:54:23;;;;;;;28.25;18.17;;;;;;;1.71;94.03;98751.58;1783103;79;21168;-73
2022/01/28 03:56:50;;;;;;;37.78;21.40;;;;;;;1.68;94.12;98750.67;1796213;79;20940;-75
2022/01/28 03:59:16;;;;;;;23.30;15.58;;;;;;;1.69;94.22;98745.67;1793623;78;21567;-78
2022/01/28 04:01:45;;;;;;;22.82;16.37;;;;;;;1.75;94.33;98733.40;1789895;79;21639;-73
2022/01/28 04:12:33;;;;;;;20.57;14.07;;;;;;;1.78;93.76;98741.42;1788830;80;20919;-76
2022/01/28 04:15:20;;;;;;;21.30;14.05;;;;;;;1.79;93.75;98736.42;1796284;79;21026;-76
2022/01/28 04:17:35;;;;;;;21.20;13.88;;;;;;;1.80;93.57;98744.67;1798122;79;21030;-76
2022/01/28 04:20:01;;;;;;;20.70;14.50;;;;;;;1.79;93.47;98736.42;1783828;79;21186;-77
2022/01/28 04:22:28;;;;;;;20.72;14.23;;;;;;;1.78;93.39;98742.23;1751301;80;21665;-77
2022/01/28 04:24:54;;;;;;;24.15;14.85;;;;;;;1.79;93.39;98742.53;1782587;80;21049;-76
2022/01/28 04:27:21;;;;;;;20.15;15.00;;;;;;;1.81;93.32;98747.12;1773825;80;20943;-76
2022/01/28 04:29:47;;;;;;;24.60;16.32;;;;;;;1.81;93.21;98741.00;1789027;78;20919;-77
2022/01/28 04:32:13;;;;;;;20.05;14.75;;;;;;;1.81;93.14;98741.82;1785816;80;21945;-73
2022/01/28 04:34:40;;;;;;;19.15;15.50;;;;;;;1.82;93.08;98747.42;1768512;80;20992;-74
2022/01/28 04:37:29;;;;;;;25.57;15.15;;;;;;;1.84;92.99;98748.00;1781597;79;20998;-79
2022/01/28 04:39:54;;;;;;;18.05;14.15;;;;;;;1.87;92.98;98749.42;1803390;79;20927;-71
2022/01/28 04:42:30;;;;;;;22.82;16.00;;;;;;;1.89;92.86;98745.52;1787604;80;21495;-80
2022/01/28 04:45:02;;;;;;;21.80;16.27;;;;;;;1.92;92.77;98754.89;1790975;79;21162;-82
2022/01/28 04:47:43;;;;;;;24.12;15.98;;;;;;;1.91;92.58;98742.14;1813059;79;20986;-79
2022/01/28 04:50:34;;;;;;;24.82;16.30;;;;;;;1.90;92.46;98737.86;1787526;79;20889;-90
2022/01/28 04:55:32;;;;;;;19.57;14.78;;;;;;;1.92;92.44;98729.70;1804483;79;21503;-83
2022/01/28 05:03:15;;;;;;;18.60;14.23;;;;;;;1.96;92.10;98730.88;1743474;81;21436;-78
2022/01/28 05:11:15;;;;;;;15.28;11.88;;;;;;;1.95;92.01;98715.48;1792197;78;20951;-80
2022/01/28 05:26:54;;;;;;;17.02;13.13;;;;;;;1.93;91.61;98713.56;1788808;79;20935;-79
2022/01/28 05:29:12;;;;;;;14.68;12.05;;;;;;;1.92;91.70;98713.80;1735710;79;21037;-78
2022/01/28 05:31:38;;;;;;;14.63;11.90;;;;;;;1.92;91.82;98715.13;1815264;79;20931;-82
2022/01/28 05:34:05;;;;;;;14.35;11.60;;;;;;;1.88;91.82;98712.59;1755293;79;21329;-81
2022/01/28 05:36:34;;;;;;;15.03;11.53;;;;;;;1.86;91.92;98714.66;1759504;80;21029;-80
2022/01/28 05:39:04;;;;;;;18.67;12.17;;;;;;;1.88;91.97;98717.89;1748960;79;21051;-81
2022/01/28 05:41:32;;;;;;;18.20;13.50;;;;;;;1.88;92.01;98716.05;1783268;79;20978;-79
2022/01/28 05:44:00;;;;;;;15.80;12.63;;;;;;;1.87;92.09;98718.94;1798160;79;21097;-79
2022/01/28 05:46:28;;;;;;;14.20;11.68;;;;;;;1.88;92.23;98712.08;1792599;79;21042;-80
2022/01/28 05:48:58;;;;;;;17.15;12.88;;;;;;;1.90;92.28;98711.36;1777357;79;21939;-77
2022/01/28 05:51:25;;;;;;;14.90;11.22;;;;;;;1.88;92.30;98713.40;1788058;80;21014;-79
2022/01/28 05:53:53;;;;;;;17.95;12.05;;;;;;;1.89;92.39;98731.45;1799198;79;20948;-81
2022/01/28 05:56:24;;;;;;;17.12;11.85;;;;;;;1.90;92.41;98710.54;1794281;79;21500;-83
2022/01/28 05:58:55;;;;;;;15.93;12.15;;;;;;;1.90;92.46;98711.36;1777313;80;20892;-81
2022/01/28 06:01:21;;;;;;;20.17;14.63;;;;;;;1.91;92.49;98710.84;1784167;80;20962;-81
2022/01/28 06:03:49;;;;;;;15.28;13.40;;;;;;;1.92;92.55;98716.45;1742878;80;20959;-81
2022/01/28 06:06:22;;;;;;;13.35;10.45;;;;;;;1.96;92.64;98715.80;1807912;79;20968;-84
2022/01/28 06:08:54;;;;;;;18.80;13.85;;;;;;;1.99;92.57;98719.33;1815042;79;21457;-77
2022/01/28 06:11:22;;;;;;;15.18;11.83;;;;;;;1.98;92.46;98716.88;1787486;79;20982;-79
2022/01/28 06:13:48;;;;;;;19.05;12.88;;;;;;;1.99;92.43;98717.18;1788183;79;21013;-80
2022/01/28 06:16:17;;;;;;;17.50;13.35;;;;;;;1.97;92.39;98716.06;1806682;79;20968;-78
2022/01/28 06:18:44;;;;;;;15.68;14.00;;;;;;;1.98;92.38;98726.97;1786023;79;21547;-78
2022/01/28 06:21:10;;;;;;;16.95;12.65;;;;;;;1.95;92.39;98723.44;1794741;78;21060;-79
2022/01/28 06:23:36;;;;;;;19.20;12.88;;;;;;;1.95;92.50;98719.47;1787787;78;21445;-83
2022/01/28 06:26:03;;;;;;;19.32;13.95;;;;;;;1.96;92.58;98721.09;1799862;79;21893;-83
2022/01/28 06:28:30;;;;;;;16.93;12.70;;;;;;;1.99;92.60;98709.23;1782423;79;21059;-81
2022/01/28 06:30:58;;;;;;;17.98;13.75;;;;;;;1.99;92.56;98723.81;1777195;79;20960;-83
2022/01/28 06:33:24;;;;;;;18.00;13.62;;;;;;;1.96;92.53;98714.98;1807539;79;20967;-82
2022/01/28 06:35:54;;;;;;;17.17;12.93;;;;;;;1.97;92.67;98714.73;1771578;80;21086;-79
2022/01/28 06:38:21;;;;;;;17.17;12.53;;;;;;;2.00;92.69;98714.33;1788534;79;21881;-83
2022/01/28 06:40:51;;;;;;;23.57;14.93;;;;;;;2.03;92.72;98713.87;1799567;79;20909;-81
2022/01/28 06:43:18;;;;;;;19.95;13.85;;;;;;;2.08;92.78;98706.59;1758841;79;21083;-77
2022/01/28 06:45:45;;;;;;;19.27;15.13;;;;;;;2.14;92.65;98703.06;1782847;79;20900;-77
2022/01/28 06:48:11;;;;;;;21.10;15.63;;;;;;;2.15;92.49;98702.04;1806337;79;20992;-76
2022/01/28 06:50:41;;;;;;;21.17;15.08;;;;;;;2.15;92.45;98704.69;1787725;80;22140;-80
2022/01/28 06:53:11;;;;;;;20.80;15.10;;;;;;;2.14;92.27;98699.09;1794107;79;20929;-80
2022/01/28 06:55:40;;;;;;;18.90;14.35;;;;;;;2.11;92.28;98705.63;1807994;79;21006;-81
2022/01/28 06:58:08;;;;;;;17.98;13.95;;;;;;;2.13;92.39;98708.06;1782565;79;20892;-79
2022/01/28 07:00:38;;;;;;;16.25;12.73;;;;;;;2.15;92.43;98708.16;1752063;81;21051;-81
2022/01/28 07:03:09;;;;;;;24.23;14.73;;;;;;;2.18;92.49;98711.69;1770758;79;21170;-79
2022/01/28 07:05:35;;;;;;;20.77;14.50;;;;;;;2.17;92.30;98710.06;1807924;79;21470;-78
2022/01/28 07:08:05;;;;;;;19.55;13.32;;;;;;;2.18;92.38;98720.97;1807638;79;20969;-86
2022/01/28 07:10:33;;;;;;;21.52;16.48;;;;;;;2.16;92.36;98724.34;1765422;80;21037;-77
2022/01/28 07:13:00;;;;;;;28.83;17.30;;;;;;;2.18;92.49;98723.62;1729818;80;21023;-83
2022/01/28 07:15:30;;;;;;;18.23;14.68;;;;;;;2.21;92.52;98718.38;1789037;80;21052;-82
2022/01/28 07:18:03;;;;;;;22.80;15.88;;;;;;;2.25;92.62;98718.77;1749162;80;20884;-84
2022/01/28 07:20:31;;;;;;;22.73;15.70;;;;;;;2.31;92.61;98713.37;1775760;80;20975;-84
2022/01/28 07:23:00;;;;;;;27.10;17.57;;;;;;;2.33;92.30;98709.19;1769596;79;21017;-82
2022/01/28 07:25:28;;;;;;;19.87;15.25;;;;;;;2.32;92.15;98721.64;1808698;78;20989;-82
2022/01/28 07:27:57;;;;;;;21.57;18.12;;;;;;;2.31;92.06;98705.42;1809124;78;21094;-83
2022/01/28 07:30:25;;;;;;;23.38;14.47;;;;;;;2.29;92.03;98717.30;1780978;79;20967;-84
2022/01/28 07:32:52;;;;;;;22.50;15.05;;;;;;;2.29;92.13;98714.64;1762403;80;21524;-80
2022/01/28 07:35:21;;;;;;;21.05;16.23;;;;;;;2.33;92.20;98723.27;1799352;79;21632;-83
2022/01/28 07:37:47;;;;;;;22.48;15.20;;;;;;;2.36;92.06;98714.05;1782983;79;20913;-81
2022/01/28 07:40:16;;;;;;;19.80;14.10;;;;;;;2.41;92.04;98718.98;1807878;79;21807;-82
2022/01/28 07:42:46;;;;;;;26.65;19.42;;;;;;;2.43;91.87;98714.28;1766120;80;21073;-82
2022/01/28 07:45:14;;;;;;;21.10;15.28;;;;;;;2.42;91.51;98715.82;1798106;79;21472;-82
2022/01/28 07:47:42;;;;;;;21.60;15.83;;;;;;;2.37;91.29;98706.39;1808707;79;21060;-86
2022/01/28 07:50:11;;;;;;;26.40;16.82;;;;;;;2.32;91.42;98708.89;1810178;79;21044;-84
2022/01/28 07:52:39;;;;;;;24.65;17.60;;;;;;;2.34;91.61;98702.34;1782623;79;21120;-82
2022/01/28 07:55:06;;;;;;;20.92;15.28;;;;;;;2.42;91.79;98707.86;1805854;79;20968;-86
2022/01/28 07:57:34;;;;;;;24.35;17.35;;;;;;;2.47;91.64;98703.52;1762574;80;20912;-81
2022/01/28 08:00:01;;;;;;;20.55;16.87;;;;;;;2.51;91.52;98699.89;1762550;80;21074;-82
2022/01/28 08:02:27;;;;;;;20.70;14.43;;;;;;;2.56;91.38;98712.80;1767626;79;20924;-79
2022/01/28 08:05:00;;;;;;;25.35;14.85;;;;;;;2.59;91.19;98708.36;1809460;79;21201;-84
2022/01/28 08:07:27;;;;;;;31.55;19.98;;;;;;;2.61;90.99;98698.34;1806706;79;20924;-82
2022/01/28 08:09:56;;;;;;;30.30;19.00;;;;;;;2.61;90.64;98701.00;1802203;79;21484;-83
2022/01/28 08:12:29;;;;;;;23.02;15.78;;;;;;;2.61;90.53;98708.96;1788791;80;20923;-81
2022/01/28 08:15:00;;;;;;;50.80;26.50;;;;;;;2.63;90.45;98694.97;1804708;79;21214;-91
2022/01/28 08:17:31;;;;;;;50.88;28.35;;;;;;;2.67;90.46;98699.30;1768099;80;21081;-86
2022/01/28 08:19:58;;;;;;;48.95;26.85;;;;;;;2.73;90.38;98698.41;1757916;81;21007;-84
2022/01/28 08:22:24;;;;;;;42.17;25.55;;;;;;;2.77;90.02;98703.56;1757901;80;21484;-83
2022/01/28 08:24:53;;;;;;;44.70;24.05;;;;;;;2.78;89.80;98697.74;1792183;79;21026;-83
2022/01/28 08:27:20;;;;;;;37.15;22.73;;;;;;;2.79;89.65;98695.36;1800078;77;21059;-79
2022/01/28 08:29:47;;;;;;;32.50;18.48;;;;;;;2.77;89.42;98687.64;1816113;79;21508;-83
2022/01/28 08:32:16;;;;;;;34.08;21.55;;;;;;;2.76;89.34;98691.84;1816139;79;20978;-82
2022/01/28 08:34:42;;;;;;;29.18;20.32;;;;;;;2.77;89.33;98694.27;1810363;79;21023;-82
2022/01/28 08:37:10;;;;;;;26.95;20.17;;;;;;;2.81;89.33;98687.99;1767670;80;21531;-84
2022/01/28 08:39:40;;;;;;;29.85;20.77;;;;;;;2.84;89.05;98683.03;1793952;79;21020;-84
2022/01/28 08:42:07;;;;;;;35.63;23.55;;;;;;;2.86;88.93;98687.62;1785636;79;21844;-86
2022/01/28 08:44:35;;;;;;;30.35;22.40;;;;;;;2.87;88.72;98686.59;1734808;81;21009;-86
2022/01/28 08:47:02;;;;;;;31.55;19.80;;;;;;;2.85;88.50;98689.97;1739936;78;21060;-88
2022/01/28 08:49:29;;;;;;;26.07;19.15;;;;;;;2.85;88.43;98680.68;1783791;78;21053;-88
2022/01/28 08:51:58;;;;;;;31.02;20.77;;;;;;;2.86;88.21;98678.32;1787443;80;21515;-86
2022/01/28 08:54:25;;;;;;;34.88;20.10;;;;;;;2.88;88.14;98683.39;1763095;80;21016;-84
2022/01/28 08:56:51;;;;;;;35.17;20.77;;;;;;;2.91;88.05;98686.94;1783380;79;21481;-81
2022/01/28 08:59:17;;;;;;;26.97;18.07;;;;;;;2.96;87.98;98688.41;1733098;80;21035;-84
2022/01/28 09:01:44;;;;;;;30.88;17.10;;;;;;;2.97;87.28;98687.38;1758846;78;20970;-83
2022/01/28 09:04:11;;;;;;;24.30;16.55;;;;;;;2.94;87.16;98685.97;1770605;80;21503;-80
2022/01/28 09:06:38;;;;;;;29.60;15.95;;;;;;;2.93;87.08;98683.02;1793964;79;21093;-79
2022/01/28 09:09:05;;;;;;;39.05;18.32;;;;;;;2.92;86.84;98684.58;1767124;79;20970;-81
2022/01/28 09:11:47;;;;;;;26.07;19.30;;;;;;;2.90;86.66;98682.14;1767083;80;21066;-78
2022/01/28 09:14:00;;;;;;;28.83;17.02;;;;;;;2.90;86.48;98682.66;1790565;80;20978;-77
2022/01/28 09:16:26;;;;;;;27.93;16.37;;;;;;;2.93;86.55;98680.88;1814104;79;21020;-82
2022/01/28 09:18:53;;;;;;;21.40;14.10;;;;;;;2.95;86.34;98674.31;1814422;79;21763;-82
2022/01/28 09:21:19;;;;;;;24.02;15.90;;;;;;;2.95;86.24;98670.33;1794977;79;21065;-79
2022/01/28 09:23:46;;;;;;;22.85;16.25;;;;;;;2.97;86.29;98674.09;1790369;79;21580;-80
2022/01/28 09:26:14;;;;;;;20.77;14.50;;;;;;;2.98;86.29;98672.52;1814811;78;21572;-80
2022/01/28 09:28:41;;;;;;;22.77;13.95;;;;;;;2.98;86.27;98670.38;1812891;77;21035;-77
2022/01/28 09:31:08;;;;;;;24.27;15.75;;;;;;;2.97;86.33;98660.27;1796127;78;21769;-81
2022/01/28 09:33:34;;;;;;;22.27;14.93;;;;;;;2.98;86.39;98657.92;1780473;79;21007;-79
2022/01/28 09:36:01;;;;;;;21.07;14.98;;;;;;;2.99;86.26;98659.55;1806827;78;21081;-82
2022/01/28 09:38:27;;;;;;;23.60;15.05;;;;;;;3.03;86.24;98654.58;1788407;78;21000;-78
2022/01/28 09:40:56;;;;;;;19.60;14.00;;;;;;;3.04;86.02;98653.55;1759528;78;21155;-82
2022/01/28 09:43:26;;;;;;;17.25;13.20;;;;;;;3.06;85.94;98652.82;1788199;78;21146;-80
2022/01/28 09:45:56;;;;;;;18.92;14.58;;;;;;;3.05;85.69;98644.55;1780967;80;21035;-82
2022/01/28 09:48:25;;;;;;;22.02;13.45;;;;;;;3.07;85.85;98646.45;1789476;80;21000;-83
2022/01/28 09:50:51;;;;;;;19.95;14.60;;;;;;;3.12;85.90;98637.83;1754119;80;21501;-78
2022/01/28 09:53:20;;;;;;;17.02;14.10;;;;;;;3.15;85.71;98636.84;1788066;78;21027;-84
2022/01/28 09:55:50;;;;;;;16.23;11.38;;;;;;;3.19;85.76;98630.55;1782316;80;21258;-85
2022/01/28 09:58:19;;;;;;;14.95;12.80;;;;;;;3.23;85.74;98633.84;1732686;80;20961;-82
2022/01/28 10:00:46;;;;;;;18.92;13.03;;;;;;;3.31;85.70;98636.16;1768354;80;21484;-81
2022/01/28 10:03:13;;;;;;;17.35;13.50;;;;;;;3.38;85.62;98632.89;1784160;78;21557;-82
2022/01/28 10:05:50;;;;;;;22.95;15.40;;;;;;;3.46;85.07;98635.72;1806532;78;21648;-79
2022/01/28 10:08:24;;;;;;;19.80;13.30;;;;;;;3.46;84.31;98618.45;1794067;78;21512;-80
2022/01/28 10:11:07;;;;;;;21.15;15.72;;;;;;;3.49;84.47;98615.34;1801041;78;20975;-82
2022/01/28 10:13:55;;;;;;;20.80;14.85;;;;;;;3.43;83.77;98615.75;1806337;78;21586;-76
2022/01/28 10:16:24;;;;;;;21.82;12.90;;;;;;;3.45;83.98;98619.52;1823617;78;20966;-84
2022/01/28 10:18:55;;;;;;;21.25;15.58;;;;;;;3.51;84.00;98618.05;1794010;78;21019;-79
2022/01/28 10:21:43;;;;;;;19.50;13.95;;;;;;;3.58;83.81;98604.66;1787848;80;20996;-80
2022/01/28 10:24:33;;;;;;;18.52;13.13;;;;;;;3.67;83.59;98601.13;1768509;80;20945;-78
2022/01/28 10:27:09;;;;;;;22.27;15.28;;;;;;;3.68;82.74;98590.27;1757011;79;21012;-80
2022/01/28 10:29:40;;;;;;;18.75;13.43;;;;;;;3.71;82.65;98592.45;1733400;81;20985;-80
2022/01/28 10:32:10;;;;;;;16.57;14.18;;;;;;;3.70;82.12;98585.51;1762247;81;21626;-82
2022/01/28 10:34:48;;;;;;;17.92;14.65;;;;;;;3.65;81.83;98581.92;1730122;82;21208;-83
2022/01/28 10:37:29;;;;;;;20.23;14.98;;;;;;;3.63;81.92;98582.70;1752968;81;21154;-82
2022/01/28 10:40:01;;;;;;;25.97;15.48;;;;;;;3.61;81.69;98582.11;1762913;81;20937;-81
2022/01/28 10:42:49;;;;;;;24.67;14.85;;;;;;;3.63;81.79;98582.70;1734711;81;21018;-77
2022/01/28 10:45:18;;;;;;;30.85;18.17;;;;;;;3.67;81.77;98565.23;1757871;81;20984;-80
2022/01/28 10:47:48;;;;;;;22.35;15.68;;;;;;;3.69;81.65;98560.50;1716714;82;21140;-84
2022/01/28 10:50:27;;;;;;;26.37;15.88;;;;;;;3.71;81.60;98564.53;1764912;80;20936;-77
2022/01/28 10:53:16;;;;;;;25.50;17.20;;;;;;;3.73;81.57;98562.46;1747576;81;21053;-80
2022/01/28 10:55:52;;;;;;;35.88;17.15;;;;;;;3.77;81.59;98556.96;1776627;80;20929;-87
2022/01/28 10:58:24;;;;;;;25.55;18.15;;;;;;;3.78;81.47;98555.92;1761837;81;21567;-75
2022/01/28 11:00:54;;;;;;;23.38;16.42;;;;;;;3.78;81.38;98552.45;1734228;81;21782;-77
2022/01/28 11:03:27;;;;;;;25.72;16.62;;;;;;;3.74;81.24;98544.66;1760344;80;20956;-81
2022/01/28 11:05:57;;;;;;;23.65;17.35;;;;;;;3.71;81.30;98555.23;1761144;81;21038;-81
2022/01/28 11:08:29;;;;;;;21.52;15.43;;;;;;;3.74;81.45;98545.99;1734265;80;21053;-78
2022/01/28 11:10:55;;;;;;;28.70;16.02;;;;;;;3.77;81.42;98538.34;1751994;81;21033;-80
2022/01/28 11:13:23;;;;;;;21.97;15.98;;;;;;;3.79;81.38;98537.58;1699032;83;21165;-80
2022/01/28 11:15:49;;;;;;;24.45;15.75;;;;;;;3.80;81.28;98539.20;1693046;84;21025;-79
2022/01/28 11:18:18;;;;;;;18.85;14.03;;;;;;;3.79;81.19;98534.14;1725582;83;20944;-80
2022/01/28 11:20:57;;;;;;;27.25;15.80;;;;;;;3.79;81.31;98540.23;1699032;83;20953;-79
2022/01/28 11:23:51;;;;;;;24.25;17.50;;;;;;;3.78;81.29;98532.00;1694811;83;20992;-80
2022/01/28 11:26:57;;;;;;;23.95;16.17;;;;;;;3.73;81.09;98523.91;1725561;80;21224;-85
2022/01/28 11:29:26;;;;;;;26.35;17.48;;;;;;;3.71;81.38;98507.37;1785459;80;20947;-82
2022/01/28 11:31:55;;;;;;;26.75;16.70;;;;;;;3.80;81.52;98505.96;1761612;79;21006;-88
2022/01/28 11:34:33;;;;;;;25.88;17.62;;;;;;;3.88;81.38;98501.63;1786000;79;20904;-77
2022/01/28 11:37:14;;;;;;;24.45;17.77;;;;;;;3.98;81.20;98512.95;1805864;78;21041;-85
2022/01/28 11:39:46;;;;;;;24.63;15.98;;;;;;;4.06;81.06;98507.80;1751271;80;21460;-83
2022/01/28 11:42:27;;;;;;;19.57;14.47;;;;;;;4.15;80.94;98501.05;1792216;78;20892;-84
2022/01/28 11:44:56;;;;;;;16.30;13.20;;;;;;;4.20;80.33;98503.81;1780492;78;20971;-81
2022/01/28 11:47:42;;;;;;;21.35;14.35;;;;;;;4.19;79.93;98509.66;1815732;78;20989;-81
2022/01/28 11:50:15;;;;;;;25.45;17.65;;;;;;;4.17;79.38;98502.97;1785420;78;21521;-81
2022/01/28 11:52:45;;;;;;;17.55;14.58;;;;;;;4.14;79.23;98504.23;1761687;80;21045;-78
2022/01/28 11:55:24;;;;;;;21.73;14.28;;;;;;;4.22;78.92;98499.86;1788806;78;20932;-80
2022/01/28 11:58:00;;;;;;;20.77;14.47;;;;;;;4.22;78.92;98499.86;1788828;79;20947;-80
2022/01/28 12:00:36;;;;;;;18.90;13.48;;;;;;;4.25;78.61;98496.73;1792169;78;21033;-75
2022/01/28 12:03:28;;;;;;;21.17;15.72;;;;;;;4.23;78.32;98496.16;1782483;78;21507;-75
2022/01/28 12:06:08;;;;;;;20.68;13.72;;;;;;;4.23;78.32;98496.16;1758898;79;21528;-83
2022/01/28 12:08:38;;;;;;;22.05;14.75;;;;;;;4.20;78.20;98497.97;1790449;79;20982;-73
2022/01/28 12:11:07;;;;;;;20.60;14.13;;;;;;;4.18;78.15;98504.56;1751738;79;20955;-82
2022/01/28 12:14:04;;;;;;;31.60;16.05;;;;;;;4.15;78.08;98499.20;1746821;80;21014;-80
2022/01/28 12:16:40;;;;;;;18.37;14.23;;;;;;;4.13;78.09;98494.63;1755536;81;21021;-89
2022/01/28 12:19:17;;;;;;;25.80;12.40;;;;;;;4.18;78.23;98507.22;1774070;79;20982;-81
2022/01/28 12:22:05;;;;;;;16.93;12.78;;;;;;;4.21;78.12;98499.59;1811877;79;21144;-78
2022/01/28 12:24:35;;;;;;;20.57;12.95;;;;;;;4.21;77.85;98494.27;1777095;80;21159;-80
2022/01/28 12:27:10;;;;;;;17.73;14.28;;;;;;;4.17;77.35;98492.33;1757656;79;21050;-79
2022/01/28 12:29:46;;;;;;;17.45;13.00;;;;;;;4.14;77.49;98497.58;1762775;80;21556;-78
2022/01/28 12:32:19;;;;;;;14.95;10.68;;;;;;;4.04;76.49;98508.55;1766776;80;21215;-91
2022/01/28 12:34:51;;;;;;;15.53;10.30;;;;;;;4.04;76.49;98508.55;1789402;79;20962;-77
2022/01/28 12:37:22;;;;;;;16.12;11.33;;;;;;;4.02;76.66;98499.49;1766639;79;21021;-81
2022/01/28 12:39:59;;;;;;;14.50;10.65;;;;;;;4.05;76.74;98499.53;1790789;79;21003;-81
2022/01/28 12:42:29;;;;;;;13.98;10.03;;;;;;;4.02;76.79;98489.38;1738168;80;21352;-74
2022/01/28 12:44:57;;;;;;;11.68;9.88;;;;;;;4.03;76.52;98492.33;1795076;79;21955;-75
2022/01/28 12:47:25;;;;;;;11.00;8.63;;;;;;;4.06;76.53;98491.32;1762953;79;20975;-83